Terminal Aerodrome Forecast
Issued by NWS

Home | Current Version | Previous Version | Text Only | Print | Product List | Glossary On
Versions: 1 2 3 4 5 6 7 8 9 10 11 12 13
000
FTUS41 KPHI 031725
TAFMIV
TAF
KMIV 031725Z 0318/0418 23009KT P6SM SCT050
     FM032100 23008KT P6SM FEW200
     FM040000 19005KT P6SM SKC
     FM040300 21003KT P6SM FEW100 BKN200
      TEMPO 0406/0410 6SM BR
     FM041100 23007KT P6SM FEW250
     FM041400 26009G19KT P6SM SCT050=

USA.gov is the U.S. government's official web portal to all federal, state and local government web resources and services.